sensor_id;sensor_type;location;lat;lon;timestamp;P1;durP1;ratioP1;P2;durP2;ratioP2
61358;SDS011;47228;46.762;23.598;2022-09-20T00:01:30;1.30;;;1.20;;
61358;SDS011;47228;46.762;23.598;2022-09-20T00:04:00;4.60;;;1.40;;
61358;SDS011;47228;46.762;23.598;2022-09-20T00:06:33;1.40;;;1.30;;
61358;SDS011;47228;46.762;23.598;2022-09-20T00:09:02;2.10;;;1.30;;
61358;SDS011;47228;46.762;23.598;2022-09-20T00:11:32;1.30;;;1.20;;
61358;SDS011;47228;46.762;23.598;2022-09-20T00:14:02;1.80;;;1.30;;
61358;SDS011;47228;46.762;23.598;2022-09-20T00:16:33;9.90;;;2.20;;
61358;SDS011;47228;46.762;23.598;2022-09-20T00:19:03;3.90;;;1.90;;
61358;SDS011;47228;46.762;23.598;2022-09-20T00:21:32;1.10;;;1.10;;
61358;SDS011;47228;46.762;23.598;2022-09-20T00:24:03;1.40;;;1.30;;
61358;SDS011;47228;46.762;23.598;2022-09-20T00:26:32;2.80;;;1.50;;
61358;SDS011;47228;46.762;23.598;2022-09-20T00:29:00;3.50;;;1.60;;
61358;SDS011;47228;46.762;23.598;2022-09-20T00:31:28;1.60;;;1.40;;
61358;SDS011;47228;46.762;23.598;2022-09-20T00:33:57;3.80;;;1.50;;
61358;SDS011;47228;46.762;23.598;2022-09-20T00:36:43;1.60;;;1.40;;
61358;SDS011;47228;46.762;23.598;2022-09-20T00:39:12;2.40;;;1.40;;
61358;SDS011;47228;46.762;23.598;2022-09-20T00:41:42;1.60;;;1.30;;
61358;SDS011;47228;46.762;23.598;2022-09-20T00:47:23;4.50;;;1.60;;
61358;SDS011;47228;46.762;23.598;2022-09-20T00:50:12;2.50;;;1.50;;
61358;SDS011;47228;46.762;23.598;2022-09-20T00:52:51;2.80;;;1.50;;
61358;SDS011;47228;46.762;23.598;2022-09-20T00:55:26;2.70;;;1.70;;
61358;SDS011;47228;46.762;23.598;2022-09-20T00:57:55;1.80;;;1.60;;
61358;SDS011;47228;46.762;23.598;2022-09-20T01:00:25;1.80;;;1.50;;
61358;SDS011;47228;46.762;23.598;2022-09-20T01:02:56;2.70;;;1.50;;
61358;SDS011;47228;46.762;23.598;2022-09-20T01:05:28;1.90;;;1.40;;
61358;SDS011;47228;46.762;23.598;2022-09-20T01:07:56;1.70;;;1.50;;
61358;SDS011;47228;46.762;23.598;2022-09-20T01:10:24;1.90;;;1.70;;
61358;SDS011;47228;46.762;23.598;2022-09-20T01:12:53;2.80;;;1.80;;
61358;SDS011;47228;46.762;23.598;2022-09-20T01:15:21;2.40;;;1.60;;
61358;SDS011;47228;46.762;23.598;2022-09-20T01:17:51;1.60;;;1.50;;
61358;SDS011;47228;46.762;23.598;2022-09-20T01:22:59;1.40;;;1.30;;
61358;SDS011;47228;46.762;23.598;2022-09-20T01:28:29;1.60;;;1.40;;
61358;SDS011;47228;46.762;23.598;2022-09-20T01:31:10;1.50;;;1.30;;
61358;SDS011;47228;46.762;23.598;2022-09-20T01:33:53;1.60;;;1.40;;
61358;SDS011;47228;46.762;23.598;2022-09-20T01:36:32;2.40;;;1.40;;
61358;SDS011;47228;46.762;23.598;2022-09-20T01:41:56;3.70;;;1.50;;
61358;SDS011;47228;46.762;23.598;2022-09-20T01:47:00;1.60;;;1.50;;
61358;SDS011;47228;46.762;23.598;2022-09-20T01:58:43;1.50;;;1.40;;
61358;SDS011;47228;46.762;23.598;2022-09-20T02:21:52;2.00;;;1.50;;
61358;SDS011;47228;46.762;23.598;2022-09-20T02:24:56;2.00;;;1.80;;
61358;SDS011;47228;46.762;23.598;2022-09-20T02:36:22;3.10;;;1.50;;
61358;SDS011;47228;46.762;23.598;2022-09-20T02:39:12;3.70;;;1.70;;
61358;SDS011;47228;46.762;23.598;2022-09-20T02:55:43;2.20;;;1.80;;
61358;SDS011;47228;46.762;23.598;2022-09-20T03:01:37;2.20;;;1.80;;
61358;SDS011;47228;46.762;23.598;2022-09-20T03:06:42;5.60;;;2.60;;
61358;SDS011;47228;46.762;23.598;2022-09-20T03:14:46;3.70;;;1.80;;
61358;SDS011;47228;46.762;23.598;2022-09-20T03:17:45;3.20;;;1.90;;
61358;SDS011;47228;46.762;23.598;2022-09-20T03:20:32;2.10;;;1.80;;
61358;SDS011;47228;46.762;23.598;2022-09-20T03:25:56;2.30;;;1.90;;
61358;SDS011;47228;46.762;23.598;2022-09-20T03:28:48;3.70;;;2.10;;
61358;SDS011;47228;46.762;23.598;2022-09-20T03:31:25;6.20;;;2.40;;
61358;SDS011;47228;46.762;23.598;2022-09-20T03:37:12;4.30;;;2.40;;
61358;SDS011;47228;46.762;23.598;2022-09-20T03:43:18;4.20;;;2.10;;
61358;SDS011;47228;46.762;23.598;2022-09-20T03:48:58;3.40;;;2.10;;
61358;SDS011;47228;46.762;23.598;2022-09-20T03:54:42;4.30;;;2.10;;
61358;SDS011;47228;46.762;23.598;2022-09-20T03:57:39;8.80;;;2.80;;
61358;SDS011;47228;46.762;23.598;2022-09-20T04:05:46;2.70;;;2.00;;
61358;SDS011;47228;46.762;23.598;2022-09-20T04:11:30;5.10;;;2.60;;
61358;SDS011;47228;46.762;23.598;2022-09-20T04:22:58;3.20;;;2.30;;
61358;SDS011;47228;46.762;23.598;2022-09-20T04:25:37;6.00;;;2.50;;
61358;SDS011;47228;46.762;23.598;2022-09-20T04:28:15;3.20;;;2.60;;
61358;SDS011;47228;46.762;23.598;2022-09-20T04:30:50;4.40;;;2.50;;
61358;SDS011;47228;46.762;23.598;2022-09-20T04:39:00;2.50;;;2.10;;
61358;SDS011;47228;46.762;23.598;2022-09-20T05:15:22;4.80;;;2.80;;
61358;SDS011;47228;46.762;23.598;2022-09-20T05:21:02;6.00;;;3.10;;
61358;SDS011;47228;46.762;23.598;2022-09-20T05:26:12;7.10;;;3.00;;
61358;SDS011;47228;46.762;23.598;2022-09-20T05:28:52;6.30;;;3.50;;
61358;SDS011;47228;46.762;23.598;2022-09-20T05:32:17;5.40;;;3.80;;
61358;SDS011;47228;46.762;23.598;2022-09-20T05:35:05;6.30;;;3.80;;
61358;SDS011;47228;46.762;23.598;2022-09-20T05:37:48;7.50;;;3.80;;
61358;SDS011;47228;46.762;23.598;2022-09-20T05:43:10;8.30;;;3.70;;
61358;SDS011;47228;46.762;23.598;2022-09-20T05:45:48;5.40;;;3.80;;
61358;SDS011;47228;46.762;23.598;2022-09-20T05:51:31;5.00;;;3.20;;
61358;SDS011;47228;46.762;23.598;2022-09-20T06:08:26;7.10;;;4.50;;
61358;SDS011;47228;46.762;23.598;2022-09-20T06:17:04;7.00;;;4.30;;
61358;SDS011;47228;46.762;23.598;2022-09-20T06:22:26;6.50;;;4.40;;
61358;SDS011;47228;46.762;23.598;2022-09-20T06:25:00;7.90;;;3.50;;
61358;SDS011;47228;46.762;23.598;2022-09-20T06:27:43;7.00;;;3.80;;
61358;SDS011;47228;46.762;23.598;2022-09-20T06:30:32;6.30;;;3.50;;
61358;SDS011;47228;46.762;23.598;2022-09-20T06:38:16;7.80;;;4.30;;
61358;SDS011;47228;46.762;23.598;2022-09-20T06:41:28;6.10;;;4.00;;
61358;SDS011;47228;46.762;23.598;2022-09-20T06:44:00;5.90;;;3.80;;
61358;SDS011;47228;46.762;23.598;2022-09-20T06:46:30;7.70;;;3.80;;
61358;SDS011;47228;46.762;23.598;2022-09-20T06:49:01;9.50;;;3.20;;
61358;SDS011;47228;46.762;23.598;2022-09-20T06:51:33;9.90;;;3.60;;
61358;SDS011;47228;46.762;23.598;2022-09-20T06:54:03;6.50;;;3.50;;
61358;SDS011;47228;46.762;23.598;2022-09-20T06:56:35;8.10;;;3.20;;
61358;SDS011;47228;46.762;23.598;2022-09-20T06:59:03;6.20;;;3.10;;
61358;SDS011;47228;46.762;23.598;2022-09-20T07:01:35;7.40;;;3.20;;
61358;SDS011;47228;46.762;23.598;2022-09-20T07:04:04;5.80;;;3.00;;
61358;SDS011;47228;46.762;23.598;2022-09-20T07:06:36;7.60;;;3.10;;
61358;SDS011;47228;46.762;23.598;2022-09-20T07:09:04;5.00;;;2.80;;
61358;SDS011;47228;46.762;23.598;2022-09-20T07:11:32;9.00;;;3.00;;
61358;SDS011;47228;46.762;23.598;2022-09-20T07:14:01;3.70;;;2.90;;
61358;SDS011;47228;46.762;23.598;2022-09-20T07:16:29;4.50;;;2.90;;
61358;SDS011;47228;46.762;23.598;2022-09-20T07:18:58;6.00;;;2.70;;
61358;SDS011;47228;46.762;23.598;2022-09-20T07:21:26;4.80;;;2.90;;
61358;SDS011;47228;46.762;23.598;2022-09-20T07:23:54;5.70;;;2.70;;
61358;SDS011;47228;46.762;23.598;2022-09-20T07:26:23;6.00;;;2.70;;
61358;SDS011;47228;46.762;23.598;2022-09-20T07:28:53;5.70;;;3.20;;
61358;SDS011;47228;46.762;23.598;2022-09-20T07:31:23;5.60;;;3.10;;
61358;SDS011;47228;46.762;23.598;2022-09-20T07:33:53;4.40;;;2.90;;
61358;SDS011;47228;46.762;23.598;2022-09-20T07:36:22;7.00;;;3.40;;
61358;SDS011;47228;46.762;23.598;2022-09-20T07:38:50;4.80;;;3.20;;
61358;SDS011;47228;46.762;23.598;2022-09-20T07:41:22;3.90;;;3.00;;
61358;SDS011;47228;46.762;23.598;2022-09-20T07:43:50;5.50;;;2.50;;
61358;SDS011;47228;46.762;23.598;2022-09-20T07:46:18;4.70;;;2.70;;
61358;SDS011;47228;46.762;23.598;2022-09-20T07:48:48;5.60;;;2.50;;
61358;SDS011;47228;46.762;23.598;2022-09-20T07:51:16;3.40;;;2.20;;
61358;SDS011;47228;46.762;23.598;2022-09-20T07:53:44;5.60;;;2.70;;
61358;SDS011;47228;46.762;23.598;2022-09-20T07:56:13;5.60;;;2.90;;
61358;SDS011;47228;46.762;23.598;2022-09-20T07:58:44;3.40;;;2.80;;
61358;SDS011;47228;46.762;23.598;2022-09-20T08:01:18;6.00;;;3.30;;
61358;SDS011;47228;46.762;23.598;2022-09-20T08:03:49;4.30;;;2.70;;
61358;SDS011;47228;46.762;23.598;2022-09-20T08:06:18;4.30;;;3.20;;
61358;SDS011;47228;46.762;23.598;2022-09-20T08:08:47;7.70;;;3.20;;
61358;SDS011;47228;46.762;23.598;2022-09-20T08:11:16;5.00;;;3.00;;
61358;SDS011;47228;46.762;23.598;2022-09-20T08:13:47;8.00;;;3.20;;
61358;SDS011;47228;46.762;23.598;2022-09-20T08:16:39;3.20;;;2.20;;
61358;SDS011;47228;46.762;23.598;2022-09-20T08:19:13;7.00;;;2.80;;
61358;SDS011;47228;46.762;23.598;2022-09-20T08:21:47;5.50;;;2.50;;
61358;SDS011;47228;46.762;23.598;2022-09-20T08:24:17;3.00;;;2.50;;
61358;SDS011;47228;46.762;23.598;2022-09-20T08:26:45;4.70;;;2.50;;
61358;SDS011;47228;46.762;23.598;2022-09-20T08:29:14;6.60;;;3.00;;
61358;SDS011;47228;46.762;23.598;2022-09-20T08:31:42;3.00;;;2.40;;
61358;SDS011;47228;46.762;23.598;2022-09-20T08:34:11;3.10;;;2.30;;
61358;SDS011;47228;46.762;23.598;2022-09-20T08:36:42;4.00;;;2.40;;
61358;SDS011;47228;46.762;23.598;2022-09-20T08:39:13;4.50;;;2.50;;
61358;SDS011;47228;46.762;23.598;2022-09-20T08:42:35;3.40;;;2.20;;
61358;SDS011;47228;46.762;23.598;2022-09-20T08:45:12;5.80;;;2.70;;
61358;SDS011;47228;46.762;23.598;2022-09-20T08:48:02;7.40;;;2.50;;
61358;SDS011;47228;46.762;23.598;2022-09-20T08:50:36;4.20;;;2.30;;
61358;SDS011;47228;46.762;23.598;2022-09-20T08:53:03;3.20;;;2.30;;
61358;SDS011;47228;46.762;23.598;2022-09-20T08:55:31;2.90;;;2.10;;
61358;SDS011;47228;46.762;23.598;2022-09-20T08:58:04;3.30;;;1.90;;
61358;SDS011;47228;46.762;23.598;2022-09-20T09:00:36;2.20;;;2.00;;
61358;SDS011;47228;46.762;23.598;2022-09-20T09:03:09;2.10;;;1.80;;
61358;SDS011;47228;46.762;23.598;2022-09-20T09:05:46;2.30;;;1.90;;
61358;SDS011;47228;46.762;23.598;2022-09-20T09:08:20;3.50;;;2.20;;
61358;SDS011;47228;46.762;23.598;2022-09-20T09:10:55;2.30;;;1.80;;
61358;SDS011;47228;46.762;23.598;2022-09-20T09:13:38;2.80;;;2.10;;
61358;SDS011;47228;46.762;23.598;2022-09-20T09:16:15;2.70;;;2.30;;
61358;SDS011;47228;46.762;23.598;2022-09-20T09:18:51;2.30;;;2.10;;
61358;SDS011;47228;46.762;23.598;2022-09-20T09:21:21;2.40;;;2.00;;
61358;SDS011;47228;46.762;23.598;2022-09-20T09:24:04;3.30;;;1.90;;
61358;SDS011;47228;46.762;23.598;2022-09-20T09:26:36;2.80;;;2.00;;
61358;SDS011;47228;46.762;23.598;2022-09-20T09:29:14;3.90;;;1.90;;
61358;SDS011;47228;46.762;23.598;2022-09-20T09:31:46;3.50;;;1.60;;
61358;SDS011;47228;46.762;23.598;2022-09-20T09:34:28;3.10;;;1.80;;
61358;SDS011;47228;46.762;23.598;2022-09-20T09:36:58;4.80;;;2.00;;
61358;SDS011;47228;46.762;23.598;2022-09-20T09:39:27;4.20;;;1.90;;
61358;SDS011;47228;46.762;23.598;2022-09-20T09:41:59;3.00;;;1.70;;
61358;SDS011;47228;46.762;23.598;2022-09-20T09:44:46;2.40;;;1.70;;
61358;SDS011;47228;46.762;23.598;2022-09-20T09:47:26;3.50;;;1.70;;
61358;SDS011;47228;46.762;23.598;2022-09-20T09:49:56;5.60;;;1.90;;
61358;SDS011;47228;46.762;23.598;2022-09-20T09:52:30;3.20;;;1.60;;
61358;SDS011;47228;46.762;23.598;2022-09-20T09:55:00;1.80;;;1.70;;
61358;SDS011;47228;46.762;23.598;2022-09-20T10:00:22;1.90;;;1.50;;
61358;SDS011;47228;46.762;23.598;2022-09-20T10:14:51;1.60;;;1.50;;
61358;SDS011;47228;46.762;23.598;2022-09-20T10:17:50;1.50;;;1.40;;
61358;SDS011;47228;46.762;23.598;2022-09-20T10:29:41;2.40;;;1.60;;
61358;SDS011;47228;46.762;23.598;2022-09-20T10:32:17;2.00;;;1.60;;
61358;SDS011;47228;46.762;23.598;2022-09-20T10:49:40;1.40;;;1.30;;
61358;SDS011;47228;46.762;23.598;2022-09-20T10:58:25;3.90;;;1.70;;
61358;SDS011;47228;46.762;23.598;2022-09-20T11:01:09;1.70;;;1.60;;
61358;SDS011;47228;46.762;23.598;2022-09-20T11:03:54;2.70;;;1.50;;
61358;SDS011;47228;46.762;23.598;2022-09-20T11:09:21;2.80;;;1.30;;
61358;SDS011;47228;46.762;23.598;2022-09-20T11:11:54;1.50;;;1.40;;
61358;SDS011;47228;46.762;23.598;2022-09-20T11:14:56;2.70;;;1.60;;
61358;SDS011;47228;46.762;23.598;2022-09-20T11:20:41;2.10;;;1.60;;
61358;SDS011;47228;46.762;23.598;2022-09-20T11:29:32;1.50;;;1.40;;
61358;SDS011;47228;46.762;23.598;2022-09-20T11:37:38;2.50;;;1.50;;
61358;SDS011;47228;46.762;23.598;2022-09-20T11:40:32;4.40;;;1.50;;
61358;SDS011;47228;46.762;23.598;2022-09-20T11:43:05;1.50;;;1.40;;
61358;SDS011;47228;46.762;23.598;2022-09-20T11:45:35;1.70;;;1.60;;
61358;SDS011;47228;46.762;23.598;2022-09-20T11:48:06;1.90;;;1.30;;
61358;SDS011;47228;46.762;23.598;2022-09-20T11:50:45;2.80;;;1.60;;
61358;SDS011;47228;46.762;23.598;2022-09-20T11:58:54;1.60;;;1.50;;
61358;SDS011;47228;46.762;23.598;2022-09-20T12:03:59;2.20;;;1.90;;
61358;SDS011;47228;46.762;23.598;2022-09-20T12:09:45;5.30;;;2.00;;
61358;SDS011;47228;46.762;23.598;2022-09-20T12:12:29;3.50;;;1.80;;
61358;SDS011;47228;46.762;23.598;2022-09-20T12:28:54;2.90;;;1.60;;
61358;SDS011;47228;46.762;23.598;2022-09-20T12:39:37;2.60;;;1.70;;
61358;SDS011;47228;46.762;23.598;2022-09-20T12:47:25;1.70;;;1.40;;
61358;SDS011;47228;46.762;23.598;2022-09-20T12:49:57;1.20;;;1.20;;
61358;SDS011;47228;46.762;23.598;2022-09-20T12:52:47;1.70;;;1.40;;
61358;SDS011;47228;46.762;23.598;2022-09-20T13:05:42;2.90;;;1.50;;
61358;SDS011;47228;46.762;23.598;2022-09-20T13:13:27;2.40;;;1.50;;
61358;SDS011;47228;46.762;23.598;2022-09-20T13:15:57;2.30;;;1.40;;
61358;SDS011;47228;46.762;23.598;2022-09-20T13:18:27;4.40;;;1.70;;
61358;SDS011;47228;46.762;23.598;2022-09-20T13:20:56;2.00;;;1.40;;
61358;SDS011;47228;46.762;23.598;2022-09-20T13:23:28;2.60;;;1.50;;
61358;SDS011;47228;46.762;23.598;2022-09-20T13:25:58;2.40;;;1.80;;
61358;SDS011;47228;46.762;23.598;2022-09-20T13:28:31;1.80;;;1.40;;
61358;SDS011;47228;46.762;23.598;2022-09-20T13:31:14;3.20;;;1.40;;
61358;SDS011;47228;46.762;23.598;2022-09-20T13:33:53;1.60;;;1.50;;
61358;SDS011;47228;46.762;23.598;2022-09-20T13:36:23;2.10;;;1.80;;
61358;SDS011;47228;46.762;23.598;2022-09-20T13:38:54;2.20;;;1.60;;
61358;SDS011;47228;46.762;23.598;2022-09-20T13:41:26;2.30;;;1.60;;
61358;SDS011;47228;46.762;23.598;2022-09-20T13:43:55;1.70;;;1.50;;
61358;SDS011;47228;46.762;23.598;2022-09-20T13:46:32;1.50;;;1.40;;
61358;SDS011;47228;46.762;23.598;2022-09-20T13:49:16;2.40;;;1.40;;
61358;SDS011;47228;46.762;23.598;2022-09-20T13:51:50;2.10;;;1.50;;
61358;SDS011;47228;46.762;23.598;2022-09-20T13:54:32;2.20;;;1.60;;
61358;SDS011;47228;46.762;23.598;2022-09-20T13:57:04;3.10;;;1.70;;
61358;SDS011;47228;46.762;23.598;2022-09-20T13:59:43;3.40;;;1.50;;
61358;SDS011;47228;46.762;23.598;2022-09-20T14:02:32;1.60;;;1.50;;
61358;SDS011;47228;46.762;23.598;2022-09-20T14:05:02;3.80;;;1.50;;
61358;SDS011;47228;46.762;23.598;2022-09-20T14:07:32;1.90;;;1.50;;
61358;SDS011;47228;46.762;23.598;2022-09-20T14:10:03;2.60;;;1.60;;
61358;SDS011;47228;46.762;23.598;2022-09-20T14:12:31;8.30;;;5.80;;
61358;SDS011;47228;46.762;23.598;2022-09-20T14:15:02;2.90;;;1.70;;
61358;SDS011;47228;46.762;23.598;2022-09-20T14:17:35;3.10;;;2.00;;
61358;SDS011;47228;46.762;23.598;2022-09-20T14:20:03;2.60;;;1.80;;
61358;SDS011;47228;46.762;23.598;2022-09-20T14:22:32;1.70;;;1.60;;
61358;SDS011;47228;46.762;23.598;2022-09-20T14:25:01;2.10;;;1.70;;
61358;SDS011;47228;46.762;23.598;2022-09-20T14:27:46;3.30;;;1.80;;
61358;SDS011;47228;46.762;23.598;2022-09-20T14:30:30;3.70;;;2.10;;
61358;SDS011;47228;46.762;23.598;2022-09-20T14:33:04;2.30;;;1.90;;
61358;SDS011;47228;46.762;23.598;2022-09-20T14:35:47;2.30;;;1.70;;
61358;SDS011;47228;46.762;23.598;2022-09-20T14:38:17;10.30;;;1.70;;
61358;SDS011;47228;46.762;23.598;2022-09-20T14:40:50;3.50;;;1.70;;
61358;SDS011;47228;46.762;23.598;2022-09-20T14:43:29;3.20;;;1.90;;
61358;SDS011;47228;46.762;23.598;2022-09-20T14:46:05;4.60;;;1.80;;
61358;SDS011;47228;46.762;23.598;2022-09-20T14:48:42;1.80;;;1.70;;
61358;SDS011;47228;46.762;23.598;2022-09-20T14:53:46;5.40;;;1.80;;
61358;SDS011;47228;46.762;23.598;2022-09-20T14:56:24;2.00;;;1.70;;
61358;SDS011;47228;46.762;23.598;2022-09-20T15:01:32;5.80;;;1.80;;
61358;SDS011;47228;46.762;23.598;2022-09-20T15:04:09;5.30;;;1.60;;
61358;SDS011;47228;46.762;23.598;2022-09-20T15:06:48;1.90;;;1.70;;
61358;SDS011;47228;46.762;23.598;2022-09-20T15:09:17;2.00;;;1.80;;
61358;SDS011;47228;46.762;23.598;2022-09-20T15:12:09;3.70;;;1.70;;
61358;SDS011;47228;46.762;23.598;2022-09-20T15:14:40;4.00;;;2.00;;
61358;SDS011;47228;46.762;23.598;2022-09-20T15:17:09;2.00;;;1.80;;
61358;SDS011;47228;46.762;23.598;2022-09-20T15:19:45;3.70;;;1.90;;
61358;SDS011;47228;46.762;23.598;2022-09-20T15:22:14;2.20;;;1.70;;
61358;SDS011;47228;46.762;23.598;2022-09-20T15:24:42;2.70;;;1.90;;
61358;SDS011;47228;46.762;23.598;2022-09-20T15:27:10;2.90;;;2.00;;
61358;SDS011;47228;46.762;23.598;2022-09-20T15:29:39;2.60;;;1.90;;
61358;SDS011;47228;46.762;23.598;2022-09-20T15:32:08;3.70;;;2.10;;
61358;SDS011;47228;46.762;23.598;2022-09-20T15:34:37;5.20;;;2.70;;
61358;SDS011;47228;46.762;23.598;2022-09-20T15:37:05;2.50;;;1.90;;
61358;SDS011;47228;46.762;23.598;2022-09-20T15:39:33;3.60;;;1.80;;
61358;SDS011;47228;46.762;23.598;2022-09-20T15:42:00;6.30;;;2.10;;
61358;SDS011;47228;46.762;23.598;2022-09-20T15:44:29;4.70;;;2.20;;
61358;SDS011;47228;46.762;23.598;2022-09-20T15:46:59;3.30;;;2.20;;
61358;SDS011;47228;46.762;23.598;2022-09-20T15:49:27;3.90;;;2.40;;
61358;SDS011;47228;46.762;23.598;2022-09-20T15:51:57;4.60;;;2.60;;
61358;SDS011;47228;46.762;23.598;2022-09-20T15:54:25;4.30;;;2.10;;
61358;SDS011;47228;46.762;23.598;2022-09-20T15:56:53;3.30;;;2.20;;
61358;SDS011;47228;46.762;23.598;2022-09-20T15:59:21;2.60;;;1.90;;
61358;SDS011;47228;46.762;23.598;2022-09-20T16:01:50;2.30;;;2.00;;
61358;SDS011;47228;46.762;23.598;2022-09-20T16:04:18;4.60;;;2.20;;
61358;SDS011;47228;46.762;23.598;2022-09-20T16:06:47;3.10;;;2.50;;
61358;SDS011;47228;46.762;23.598;2022-09-20T16:09:17;2.80;;;2.10;;
61358;SDS011;47228;46.762;23.598;2022-09-20T16:11:46;3.10;;;1.90;;
61358;SDS011;47228;46.762;23.598;2022-09-20T16:14:15;2.40;;;2.00;;
61358;SDS011;47228;46.762;23.598;2022-09-20T16:16:43;4.50;;;2.40;;
61358;SDS011;47228;46.762;23.598;2022-09-20T16:19:11;3.60;;;2.40;;
61358;SDS011;47228;46.762;23.598;2022-09-20T16:21:51;2.40;;;1.90;;
61358;SDS011;47228;46.762;23.598;2022-09-20T16:24:32;5.80;;;2.00;;
61358;SDS011;47228;46.762;23.598;2022-09-20T16:27:03;2.40;;;2.10;;
61358;SDS011;47228;46.762;23.598;2022-09-20T16:29:33;3.80;;;2.20;;
61358;SDS011;47228;46.762;23.598;2022-09-20T16:32:01;4.10;;;2.20;;
61358;SDS011;47228;46.762;23.598;2022-09-20T16:34:31;4.10;;;2.40;;
61358;SDS011;47228;46.762;23.598;2022-09-20T16:37:05;4.30;;;2.40;;
61358;SDS011;47228;46.762;23.598;2022-09-20T16:39:38;4.80;;;2.60;;
61358;SDS011;47228;46.762;23.598;2022-09-20T16:42:07;4.90;;;3.20;;
61358;SDS011;47228;46.762;23.598;2022-09-20T16:44:40;3.40;;;2.40;;
61358;SDS011;47228;46.762;23.598;2022-09-20T16:47:14;4.80;;;2.40;;
61358;SDS011;47228;46.762;23.598;2022-09-20T16:49:48;3.90;;;2.40;;
61358;SDS011;47228;46.762;23.598;2022-09-20T16:52:17;3.90;;;2.70;;
61358;SDS011;47228;46.762;23.598;2022-09-20T16:54:45;5.10;;;3.10;;
61358;SDS011;47228;46.762;23.598;2022-09-20T16:57:13;4.10;;;3.00;;
61358;SDS011;47228;46.762;23.598;2022-09-20T16:59:42;4.70;;;3.10;;
61358;SDS011;47228;46.762;23.598;2022-09-20T17:02:11;4.10;;;3.10;;
61358;SDS011;47228;46.762;23.598;2022-09-20T17:04:39;5.70;;;3.00;;
61358;SDS011;47228;46.762;23.598;2022-09-20T17:07:10;6.20;;;3.40;;
61358;SDS011;47228;46.762;23.598;2022-09-20T17:09:38;8.30;;;3.40;;
61358;SDS011;47228;46.762;23.598;2022-09-20T17:12:06;6.70;;;4.20;;
61358;SDS011;47228;46.762;23.598;2022-09-20T17:14:39;7.40;;;3.70;;
61358;SDS011;47228;46.762;23.598;2022-09-20T17:17:08;14.50;;;10.00;;
61358;SDS011;47228;46.762;23.598;2022-09-20T17:19:36;18.10;;;16.20;;
61358;SDS011;47228;46.762;23.598;2022-09-20T17:22:04;18.80;;;17.00;;
61358;SDS011;47228;46.762;23.598;2022-09-20T17:24:35;16.70;;;15.00;;
61358;SDS011;47228;46.762;23.598;2022-09-20T17:27:03;12.90;;;11.30;;
61358;SDS011;47228;46.762;23.598;2022-09-20T17:29:31;12.00;;;8.50;;
61358;SDS011;47228;46.762;23.598;2022-09-20T17:31:59;15.80;;;8.10;;
61358;SDS011;47228;46.762;23.598;2022-09-20T17:34:27;9.90;;;6.90;;
61358;SDS011;47228;46.762;23.598;2022-09-20T17:36:56;8.90;;;5.90;;
61358;SDS011;47228;46.762;23.598;2022-09-20T17:39:24;8.50;;;5.30;;
61358;SDS011;47228;46.762;23.598;2022-09-20T17:41:52;9.00;;;5.20;;
61358;SDS011;47228;46.762;23.598;2022-09-20T17:44:20;10.70;;;5.20;;
61358;SDS011;47228;46.762;23.598;2022-09-20T17:46:48;41.30;;;19.80;;
61358;SDS011;47228;46.762;23.598;2022-09-20T17:49:19;35.40;;;17.80;;
61358;SDS011;47228;46.762;23.598;2022-09-20T17:51:49;90.70;;;39.20;;
61358;SDS011;47228;46.762;23.598;2022-09-20T17:54:21;122.90;;;52.30;;
61358;SDS011;47228;46.762;23.598;2022-09-20T17:56:52;64.40;;;34.20;;
61358;SDS011;47228;46.762;23.598;2022-09-20T17:59:22;32.60;;;18.30;;
61358;SDS011;47228;46.762;23.598;2022-09-20T18:01:51;13.00;;;8.20;;
61358;SDS011;47228;46.762;23.598;2022-09-20T18:04:21;17.40;;;10.80;;
61358;SDS011;47228;46.762;23.598;2022-09-20T18:06:51;11.90;;;6.30;;
61358;SDS011;47228;46.762;23.598;2022-09-20T18:09:22;14.70;;;8.40;;
61358;SDS011;47228;46.762;23.598;2022-09-20T18:11:53;14.00;;;8.80;;
61358;SDS011;47228;46.762;23.598;2022-09-20T18:14:23;11.00;;;7.40;;
61358;SDS011;47228;46.762;23.598;2022-09-20T18:16:55;9.10;;;6.50;;
61358;SDS011;47228;46.762;23.598;2022-09-20T18:19:28;9.00;;;5.00;;
61358;SDS011;47228;46.762;23.598;2022-09-20T18:22:01;7.70;;;4.60;;
61358;SDS011;47228;46.762;23.598;2022-09-20T18:24:30;7.80;;;4.10;;
61358;SDS011;47228;46.762;23.598;2022-09-20T18:26:58;10.80;;;4.70;;
61358;SDS011;47228;46.762;23.598;2022-09-20T18:29:27;6.60;;;4.20;;
61358;SDS011;47228;46.762;23.598;2022-09-20T18:31:56;7.30;;;3.90;;
61358;SDS011;47228;46.762;23.598;2022-09-20T18:34:26;7.20;;;4.50;;
61358;SDS011;47228;46.762;23.598;2022-09-20T18:36:58;8.30;;;4.20;;
61358;SDS011;47228;46.762;23.598;2022-09-20T18:39:28;9.20;;;4.20;;
61358;SDS011;47228;46.762;23.598;2022-09-20T18:42:04;6.10;;;4.10;;
61358;SDS011;47228;46.762;23.598;2022-09-20T18:44:35;12.80;;;7.00;;
61358;SDS011;47228;46.762;23.598;2022-09-20T18:47:03;12.50;;;7.20;;
61358;SDS011;47228;46.762;23.598;2022-09-20T18:49:32;11.30;;;6.30;;
61358;SDS011;47228;46.762;23.598;2022-09-20T18:52:01;7.60;;;4.60;;
61358;SDS011;47228;46.762;23.598;2022-09-20T18:54:29;9.40;;;5.40;;
61358;SDS011;47228;46.762;23.598;2022-09-20T18:57:00;8.90;;;5.00;;
61358;SDS011;47228;46.762;23.598;2022-09-20T18:59:28;9.40;;;4.70;;
61358;SDS011;47228;46.762;23.598;2022-09-20T19:07:28;11.60;;;5.40;;
61358;SDS011;47228;46.762;23.598;2022-09-20T19:10:21;9.60;;;5.50;;
61358;SDS011;47228;46.762;23.598;2022-09-20T19:21:46;10.10;;;6.40;;
61358;SDS011;47228;46.762;23.598;2022-09-20T19:27:16;9.10;;;6.00;;
61358;SDS011;47228;46.762;23.598;2022-09-20T19:29:45;10.20;;;5.30;;
61358;SDS011;47228;46.762;23.598;2022-09-20T19:32:16;10.00;;;5.20;;
61358;SDS011;47228;46.762;23.598;2022-09-20T19:34:49;8.50;;;5.40;;
61358;SDS011;47228;46.762;23.598;2022-09-20T19:53:14;44.60;;;19.90;;
61358;SDS011;47228;46.762;23.598;2022-09-20T19:55:48;33.50;;;14.90;;
61358;SDS011;47228;46.762;23.598;2022-09-20T19:58:23;22.90;;;10.90;;
61358;SDS011;47228;46.762;23.598;2022-09-20T20:00:52;20.70;;;10.50;;
61358;SDS011;47228;46.762;23.598;2022-09-20T20:03:20;17.20;;;8.40;;
61358;SDS011;47228;46.762;23.598;2022-09-20T20:08:39;12.90;;;7.60;;
61358;SDS011;47228;46.762;23.598;2022-09-20T20:11:11;7.80;;;4.70;;
61358;SDS011;47228;46.762;23.598;2022-09-20T20:13:58;8.50;;;4.10;;
61358;SDS011;47228;46.762;23.598;2022-09-20T20:27:19;7.50;;;4.00;;
61358;SDS011;47228;46.762;23.598;2022-09-20T20:29:47;6.50;;;3.80;;
61358;SDS011;47228;46.762;23.598;2022-09-20T20:32:16;8.20;;;3.40;;
61358;SDS011;47228;46.762;23.598;2022-09-20T20:34:44;5.30;;;3.20;;
61358;SDS011;47228;46.762;23.598;2022-09-20T20:37:13;4.40;;;3.10;;
61358;SDS011;47228;46.762;23.598;2022-09-20T20:39:42;6.20;;;3.00;;
61358;SDS011;47228;46.762;23.598;2022-09-20T20:42:10;6.90;;;3.60;;
61358;SDS011;47228;46.762;23.598;2022-09-20T20:44:39;5.00;;;3.40;;
61358;SDS011;47228;46.762;23.598;2022-09-20T20:47:07;5.80;;;3.80;;
61358;SDS011;47228;46.762;23.598;2022-09-20T20:49:35;6.40;;;3.70;;
61358;SDS011;47228;46.762;23.598;2022-09-20T20:52:03;4.60;;;3.30;;
61358;SDS011;47228;46.762;23.598;2022-09-20T20:54:32;7.80;;;3.40;;
61358;SDS011;47228;46.762;23.598;2022-09-20T20:57:00;9.80;;;4.00;;
61358;SDS011;47228;46.762;23.598;2022-09-20T20:59:29;6.00;;;3.60;;
61358;SDS011;47228;46.762;23.598;2022-09-20T21:01:57;6.00;;;4.00;;
61358;SDS011;47228;46.762;23.598;2022-09-20T21:04:32;7.40;;;4.10;;
61358;SDS011;47228;46.762;23.598;2022-09-20T21:07:00;6.80;;;4.20;;
61358;SDS011;47228;46.762;23.598;2022-09-20T21:09:28;10.10;;;4.10;;